sensor_id;sensor_type;location;lat;lon;timestamp;pressure;altitude;pressure_sealevel;temperature;humidity
46876;BME280;32866;50.160;14.768;2022-08-01T00:00:29;99220.22;;;19.86;99.77
46876;BME280;32866;50.160;14.768;2022-08-01T00:02:55;99214.91;;;19.82;100.00
46876;BME280;32866;50.160;14.768;2022-08-01T00:05:20;99214.63;;;19.97;98.21
46876;BME280;32866;50.160;14.768;2022-08-01T00:07:45;99211.88;;;19.86;100.00
46876;BME280;32866;50.160;14.768;2022-08-01T00:10:12;99211.63;;;19.90;100.00
46876;BME280;32866;50.160;14.768;2022-08-01T00:12:38;99202.50;;;20.06;100.00
46876;BME280;32866;50.160;14.768;2022-08-01T00:15:04;99214.13;;;19.93;100.00
46876;BME280;32866;50.160;14.768;2022-08-01T00:17:30;99219.69;;;19.93;100.00
46876;BME280;32866;50.160;14.768;2022-08-01T00:19:55;99219.69;;;19.82;100.00
46876;BME280;32866;50.160;14.768;2022-08-01T00:22:21;99210.84;;;19.67;100.00
46876;BME280;32866;50.160;14.768;2022-08-01T00:24:46;99198.44;;;19.45;100.00
46876;BME280;32866;50.160;14.768;2022-08-01T00:27:12;99227.25;;;19.64;100.00
46876;BME280;32866;50.160;14.768;2022-08-01T00:29:37;99207.28;;;19.55;100.00
46876;BME280;32866;50.160;14.768;2022-08-01T00:32:03;99187.34;;;19.56;100.00
46876;BME280;32866;50.160;14.768;2022-08-01T00:34:29;99194.69;;;19.76;100.00
46876;BME280;32866;50.160;14.768;2022-08-01T00:36:54;99217.91;;;19.73;100.00
46876;BME280;32866;50.160;14.768;2022-08-01T00:39:19;99215.63;;;19.72;100.00
46876;BME280;32866;50.160;14.768;2022-08-01T00:41:44;99198.19;;;19.43;100.00
46876;BME280;32866;50.160;14.768;2022-08-01T00:44:10;99204.00;;;19.45;100.00
46876;BME280;32866;50.160;14.768;2022-08-01T00:46:35;99194.38;;;19.12;100.00
46876;BME280;32866;50.160;14.768;2022-08-01T00:49:01;99192.31;;;19.07;100.00
46876;BME280;32866;50.160;14.768;2022-08-01T00:51:26;99190.31;;;19.13;100.00
46876;BME280;32866;50.160;14.768;2022-08-01T00:53:53;99181.50;;;19.20;100.00
46876;BME280;32866;50.160;14.768;2022-08-01T00:56:20;99188.28;;;19.14;100.00
46876;BME280;32866;50.160;14.768;2022-08-01T00:58:47;99191.63;;;19.40;100.00
46876;BME280;32866;50.160;14.768;2022-08-01T01:01:12;99194.91;;;19.61;100.00
46876;BME280;32866;50.160;14.768;2022-08-01T01:03:38;99191.13;;;19.53;100.00
46876;BME280;32866;50.160;14.768;2022-08-01T01:06:26;99193.41;;;19.49;100.00
46876;BME280;32866;50.160;14.768;2022-08-01T01:09:05;99188.59;;;19.50;100.00
46876;BME280;32866;50.160;14.768;2022-08-01T01:12:02;99167.13;;;19.39;100.00
46876;BME280;32866;50.160;14.768;2022-08-01T01:14:37;99186.31;;;19.65;100.00
46876;BME280;32866;50.160;14.768;2022-08-01T01:17:06;99187.09;;;19.71;100.00
46876;BME280;32866;50.160;14.768;2022-08-01T01:19:39;99185.81;;;19.50;100.00
46876;BME280;32866;50.160;14.768;2022-08-01T01:22:46;99191.88;;;19.71;100.00
46876;BME280;32866;50.160;14.768;2022-08-01T01:28:31;99177.97;;;19.54;100.00
46876;BME280;32866;50.160;14.768;2022-08-01T01:30:59;99152.22;;;19.19;100.00
46876;BME280;32866;50.160;14.768;2022-08-01T01:33:27;99165.63;;;19.38;100.00
46876;BME280;32866;50.160;14.768;2022-08-01T01:36:05;99179.25;;;19.47;100.00
46876;BME280;32866;50.160;14.768;2022-08-01T01:38:37;99157.03;;;19.36;100.00
46876;BME280;32866;50.160;14.768;2022-08-01T01:41:07;99164.59;;;19.52;100.00
46876;BME280;32866;50.160;14.768;2022-08-01T01:43:35;99147.94;;;19.41;100.00
46876;BME280;32866;50.160;14.768;2022-08-01T01:46:02;99165.84;;;19.45;100.00
46876;BME280;32866;50.160;14.768;2022-08-01T01:48:29;99158.53;;;19.37;100.00
46876;BME280;32866;50.160;14.768;2022-08-01T01:50:55;99134.31;;;19.26;100.00
46876;BME280;32866;50.160;14.768;2022-08-01T01:53:22;99127.72;;;19.35;98.80
46876;BME280;32866;50.160;14.768;2022-08-01T01:55:52;99153.00;;;19.48;97.66
46876;BME280;32866;50.160;14.768;2022-08-01T01:58:19;99136.84;;;19.41;97.77
46876;BME280;32866;50.160;14.768;2022-08-01T02:00:46;99141.09;;;19.42;97.80
46876;BME280;32866;50.160;14.768;2022-08-01T02:03:14;99146.91;;;19.27;99.51
46876;BME280;32866;50.160;14.768;2022-08-01T02:05:41;99133.75;;;18.94;100.00
46876;BME280;32866;50.160;14.768;2022-08-01T02:08:07;99143.59;;;19.00;100.00
46876;BME280;32866;50.160;14.768;2022-08-01T02:10:35;99136.78;;;18.96;100.00
46876;BME280;32866;50.160;14.768;2022-08-01T02:13:03;99140.06;;;19.00;100.00
46876;BME280;32866;50.160;14.768;2022-08-01T02:15:31;99126.63;;;18.81;100.00
46876;BME280;32866;50.160;14.768;2022-08-01T02:18:00;99144.59;;;18.91;100.00
46876;BME280;32866;50.160;14.768;2022-08-01T02:20:30;99135.22;;;18.83;100.00
46876;BME280;32866;50.160;14.768;2022-08-01T02:23:06;99152.09;;;18.74;100.00
46876;BME280;32866;50.160;14.768;2022-08-01T02:25:37;99146.78;;;18.70;100.00
46876;BME280;32866;50.160;14.768;2022-08-01T02:28:10;99130.09;;;18.53;100.00
46876;BME280;32866;50.160;14.768;2022-08-01T02:30:39;99136.09;;;18.46;100.00
46876;BME280;32866;50.160;14.768;2022-08-01T02:33:18;99155.06;;;18.59;100.00
46876;BME280;32866;50.160;14.768;2022-08-01T02:35:48;99138.63;;;18.50;100.00
46876;BME280;32866;50.160;14.768;2022-08-01T02:38:16;99134.63;;;18.57;100.00
46876;BME280;32866;50.160;14.768;2022-08-01T02:40:45;99136.44;;;18.65;100.00
46876;BME280;32866;50.160;14.768;2022-08-01T02:43:12;99138.97;;;18.75;100.00
46876;BME280;32866;50.160;14.768;2022-08-01T02:45:42;99151.34;;;18.79;99.70
46876;BME280;32866;50.160;14.768;2022-08-01T02:48:13;99146.81;;;18.76;100.00
46876;BME280;32866;50.160;14.768;2022-08-01T02:50:42;99132.66;;;18.74;100.00
46876;BME280;32866;50.160;14.768;2022-08-01T02:53:08;99136.19;;;18.69;100.00
46876;BME280;32866;50.160;14.768;2022-08-01T02:55:37;99145.59;;;18.83;99.63
46876;BME280;32866;50.160;14.768;2022-08-01T02:58:04;99138.72;;;18.78;99.68
46876;BME280;32866;50.160;14.768;2022-08-01T03:00:30;99160.50;;;18.91;99.09
46876;BME280;32866;50.160;14.768;2022-08-01T03:02:57;99141.25;;;18.76;98.72
46876;BME280;32866;50.160;14.768;2022-08-01T03:05:25;99135.19;;;18.78;98.75
46876;BME280;32866;50.160;14.768;2022-08-01T03:07:52;99147.38;;;18.91;98.01
46876;BME280;32866;50.160;14.768;2022-08-01T03:10:19;99150.91;;;18.92;97.39
46876;BME280;32866;50.160;14.768;2022-08-01T03:12:46;99130.41;;;18.72;97.46
46876;BME280;32866;50.160;14.768;2022-08-01T03:15:12;99160.00;;;18.93;97.24
46876;BME280;32866;50.160;14.768;2022-08-01T03:17:41;99160.50;;;18.85;98.30
46876;BME280;32866;50.160;14.768;2022-08-01T03:20:11;99161.41;;;18.65;100.00
46876;BME280;32866;50.160;14.768;2022-08-01T03:22:38;99155.78;;;18.48;100.00
46876;BME280;32866;50.160;14.768;2022-08-01T03:25:06;99158.25;;;18.35;100.00
46876;BME280;32866;50.160;14.768;2022-08-01T03:27:33;99145.31;;;18.15;100.00
46876;BME280;32866;50.160;14.768;2022-08-01T03:30:02;99177.06;;;18.20;100.00
46876;BME280;32866;50.160;14.768;2022-08-01T03:32:29;99147.44;;;17.94;100.00
46876;BME280;32866;50.160;14.768;2022-08-01T03:34:55;99160.34;;;18.03;100.00
46876;BME280;32866;50.160;14.768;2022-08-01T03:37:25;99168.56;;;18.29;100.00
46876;BME280;32866;50.160;14.768;2022-08-01T03:39:58;99147.78;;;18.07;100.00
46876;BME280;32866;50.160;14.768;2022-08-01T03:42:31;99158.34;;;18.03;100.00
46876;BME280;32866;50.160;14.768;2022-08-01T03:45:01;99165.88;;;18.03;100.00
46876;BME280;32866;50.160;14.768;2022-08-01T03:47:32;99156.81;;;18.02;100.00
46876;BME280;32866;50.160;14.768;2022-08-01T03:50:01;99160.09;;;18.06;100.00
46876;BME280;32866;50.160;14.768;2022-08-01T03:52:28;99158.59;;;18.05;100.00
46876;BME280;32866;50.160;14.768;2022-08-01T03:54:56;99154.63;;;18.17;100.00
46876;BME280;32866;50.160;14.768;2022-08-01T03:57:23;99145.69;;;17.96;100.00
46876;BME280;32866;50.160;14.768;2022-08-01T03:59:51;99152.50;;;18.01;100.00
46876;BME280;32866;50.160;14.768;2022-08-01T04:02:17;99138.75;;;17.80;100.00
46876;BME280;32866;50.160;14.768;2022-08-01T04:04:43;99147.56;;;17.79;100.00
46876;BME280;32866;50.160;14.768;2022-08-01T04:07:23;99139.94;;;17.68;100.00
46876;BME280;32866;50.160;14.768;2022-08-01T04:09:49;99183.97;;;17.92;100.00
46876;BME280;32866;50.160;14.768;2022-08-01T04:12:14;99167.09;;;17.96;100.00
46876;BME280;32866;50.160;14.768;2022-08-01T04:14:39;99161.44;;;17.85;100.00
46876;BME280;32866;50.160;14.768;2022-08-01T04:17:05;99154.88;;;17.76;100.00
46876;BME280;32866;50.160;14.768;2022-08-01T04:19:30;99178.75;;;18.06;100.00
46876;BME280;32866;50.160;14.768;2022-08-01T04:21:55;99140.81;;;17.86;100.00
46876;BME280;32866;50.160;14.768;2022-08-01T04:24:21;99177.34;;;18.22;100.00
46876;BME280;32866;50.160;14.768;2022-08-01T04:26:48;99176.34;;;18.25;100.00
46876;BME280;32866;50.160;14.768;2022-08-01T04:29:16;99172.41;;;18.43;100.00
46876;BME280;32866;50.160;14.768;2022-08-01T04:31:44;99162.53;;;18.36;100.00
46876;BME280;32866;50.160;14.768;2022-08-01T04:34:14;99185.28;;;18.51;100.00
46876;BME280;32866;50.160;14.768;2022-08-01T04:36:41;99160.81;;;18.44;100.00
46876;BME280;32866;50.160;14.768;2022-08-01T04:39:07;99189.09;;;18.54;100.00
46876;BME280;32866;50.160;14.768;2022-08-01T04:41:34;99170.44;;;18.54;100.00
46876;BME280;32866;50.160;14.768;2022-08-01T04:44:01;99173.75;;;18.59;100.00
46876;BME280;32866;50.160;14.768;2022-08-01T04:46:29;99176.50;;;18.59;100.00
46876;BME280;32866;50.160;14.768;2022-08-01T04:48:55;99152.22;;;18.42;100.00
46876;BME280;32866;50.160;14.768;2022-08-01T04:51:21;99176.78;;;18.61;100.00
46876;BME280;32866;50.160;14.768;2022-08-01T04:53:49;99159.03;;;18.41;100.00
46876;BME280;32866;50.160;14.768;2022-08-01T04:56:17;99169.69;;;18.60;100.00
46876;BME280;32866;50.160;14.768;2022-08-01T04:58:43;99186.47;;;18.88;100.00
46876;BME280;32866;50.160;14.768;2022-08-01T05:01:09;99159.44;;;18.77;100.00
46876;BME280;32866;50.160;14.768;2022-08-01T05:03:35;99185.00;;;19.09;100.00
46876;BME280;32866;50.160;14.768;2022-08-01T05:06:00;99178.94;;;19.00;100.00
46876;BME280;32866;50.160;14.768;2022-08-01T05:08:26;99159.94;;;18.76;100.00
46876;BME280;32866;50.160;14.768;2022-08-01T05:10:51;99183.25;;;19.01;100.00
46876;BME280;32866;50.160;14.768;2022-08-01T05:13:18;99168.84;;;19.08;100.00
46876;BME280;32866;50.160;14.768;2022-08-01T05:15:43;99183.53;;;19.14;100.00
46876;BME280;32866;50.160;14.768;2022-08-01T05:18:08;99166.03;;;18.91;100.00
46876;BME280;32866;50.160;14.768;2022-08-01T05:20:33;99170.09;;;19.07;100.00
46876;BME280;32866;50.160;14.768;2022-08-01T05:22:59;99184.78;;;19.24;100.00
46876;BME280;32866;50.160;14.768;2022-08-01T05:25:24;99166.06;;;19.08;100.00
46876;BME280;32866;50.160;14.768;2022-08-01T05:27:50;99179.47;;;19.32;100.00
46876;BME280;32866;50.160;14.768;2022-08-01T05:30:15;99186.84;;;19.41;100.00
46876;BME280;32866;50.160;14.768;2022-08-01T05:32:41;99188.09;;;19.40;100.00
46876;BME280;32866;50.160;14.768;2022-08-01T05:35:07;99177.47;;;19.27;100.00
46876;BME280;32866;50.160;14.768;2022-08-01T05:37:33;99190.88;;;19.40;100.00
46876;BME280;32866;50.160;14.768;2022-08-01T05:39:59;99186.06;;;19.40;100.00
46876;BME280;32866;50.160;14.768;2022-08-01T05:42:24;99153.22;;;19.33;100.00
46876;BME280;32866;50.160;14.768;2022-08-01T05:44:50;99158.78;;;19.50;100.00
46876;BME280;32866;50.160;14.768;2022-08-01T05:47:16;99189.88;;;19.77;100.00
46876;BME280;32866;50.160;14.768;2022-08-01T05:49:42;99184.56;;;19.90;100.00
46876;BME280;32866;50.160;14.768;2022-08-01T05:52:07;99184.31;;;19.99;100.00
46876;BME280;32866;50.160;14.768;2022-08-01T05:54:33;99187.59;;;20.04;100.00
46876;BME280;32866;50.160;14.768;2022-08-01T05:56:58;99155.78;;;19.76;100.00
46876;BME280;32866;50.160;14.768;2022-08-01T05:59:27;99191.88;;;20.05;100.00
46876;BME280;32866;50.160;14.768;2022-08-01T06:01:52;99174.97;;;19.86;100.00
46876;BME280;32866;50.160;14.768;2022-08-01T06:04:17;99182.03;;;20.04;100.00
46876;BME280;32866;50.160;14.768;2022-08-01T06:06:43;99181.78;;;19.79;100.00
46876;BME280;32866;50.160;14.768;2022-08-01T06:09:08;99200.75;;;20.03;100.00
46876;BME280;32866;50.160;14.768;2022-08-01T06:11:33;99195.44;;;19.88;100.00
46876;BME280;32866;50.160;14.768;2022-08-01T06:13:59;99197.94;;;19.63;100.00
46876;BME280;32866;50.160;14.768;2022-08-01T06:16:24;99168.66;;;19.51;100.00
46876;BME280;32866;50.160;14.768;2022-08-01T06:18:49;99180.28;;;19.50;100.00
46876;BME280;32866;50.160;14.768;2022-08-01T06:21:15;99179.25;;;19.47;100.00
46876;BME280;32866;50.160;14.768;2022-08-01T06:23:40;99209.06;;;19.63;100.00
46876;BME280;32866;50.160;14.768;2022-08-01T06:26:07;99181.78;;;19.56;100.00
46876;BME280;32866;50.160;14.768;2022-08-01T06:28:33;99213.88;;;19.74;100.00
46876;BME280;32866;50.160;14.768;2022-08-01T06:30:58;99212.09;;;19.71;100.00
46876;BME280;32866;50.160;14.768;2022-08-01T06:33:24;99214.09;;;19.71;100.00
46876;BME280;32866;50.160;14.768;2022-08-01T06:35:49;99213.66;;;19.78;100.00
46876;BME280;32866;50.160;14.768;2022-08-01T06:38:15;99209.84;;;19.70;100.00
46876;BME280;32866;50.160;14.768;2022-08-01T06:40:40;99197.19;;;19.63;100.00
46876;BME280;32866;50.160;14.768;2022-08-01T06:43:06;99216.94;;;19.88;100.00
46876;BME280;32866;50.160;14.768;2022-08-01T06:45:31;99201.00;;;19.77;100.00
46876;BME280;32866;50.160;14.768;2022-08-01T06:47:56;99220.16;;;20.31;100.00
46876;BME280;32866;50.160;14.768;2022-08-01T06:50:22;99226.16;;;20.64;100.00
46876;BME280;32866;50.160;14.768;2022-08-01T06:52:47;99214.16;;;20.86;97.63
46876;BME280;32866;50.160;14.768;2022-08-01T06:55:13;99232.06;;;21.49;96.07
46876;BME280;32866;50.160;14.768;2022-08-01T06:57:49;99233.59;;;21.80;94.69
46876;BME280;32866;50.160;14.768;2022-08-01T07:00:16;99217.34;;;21.84;92.12
46876;BME280;32866;50.160;14.768;2022-08-01T07:02:44;99230.41;;;21.65;93.05
46876;BME280;32866;50.160;14.768;2022-08-01T07:05:10;99230.69;;;21.67;95.10
46876;BME280;32866;50.160;14.768;2022-08-01T07:07:36;99229.50;;;22.12;95.87
46876;BME280;32866;50.160;14.768;2022-08-01T07:10:02;99225.31;;;22.54;93.89
46876;BME280;32866;50.160;14.768;2022-08-01T07:12:28;99221.94;;;22.81;90.28
46876;BME280;32866;50.160;14.768;2022-08-01T07:14:53;99211.28;;;22.60;89.93
46876;BME280;32866;50.160;14.768;2022-08-01T07:17:19;99232.22;;;22.91;86.72
46876;BME280;32866;50.160;14.768;2022-08-01T07:19:46;99221.09;;;22.67;86.49
46876;BME280;32866;50.160;14.768;2022-08-01T07:22:11;99237.50;;;22.76;86.74
46876;BME280;32866;50.160;14.768;2022-08-01T07:24:36;99210.66;;;22.48;89.47
46876;BME280;32866;50.160;14.768;2022-08-01T07:27:02;99231.84;;;22.57;84.37
46876;BME280;32866;50.160;14.768;2022-08-01T07:29:27;99212.59;;;22.34;82.80
46876;BME280;32866;50.160;14.768;2022-08-01T07:31:54;99228.75;;;22.11;86.38
46876;BME280;32866;50.160;14.768;2022-08-01T07:34:20;99210.09;;;21.70;87.08
46876;BME280;32866;50.160;14.768;2022-08-01T07:36:46;99236.91;;;22.09;87.10
46876;BME280;32866;50.160;14.768;2022-08-01T07:39:11;99233.34;;;22.09;83.90
46876;BME280;32866;50.160;14.768;2022-08-01T07:41:36;99237.94;;;22.06;87.29
46876;BME280;32866;50.160;14.768;2022-08-01T07:44:02;99239.63;;;22.15;83.98
46876;BME280;32866;50.160;14.768;2022-08-01T07:46:27;99231.56;;;22.11;85.03
46876;BME280;32866;50.160;14.768;2022-08-01T07:48:55;99217.25;;;22.20;82.80
46876;BME280;32866;50.160;14.768;2022-08-01T07:51:20;99232.16;;;22.29;84.83
46876;BME280;32866;50.160;14.768;2022-08-01T07:53:46;99257.69;;;22.63;82.30
46876;BME280;32866;50.160;14.768;2022-08-01T07:56:11;99241.47;;;22.81;82.86
46876;BME280;32866;50.160;14.768;2022-08-01T08:01:12;99250.81;;;23.27;77.13
46876;BME280;32866;50.160;14.768;2022-08-01T08:03:37;99247.41;;;23.53;78.02
46876;BME280;32866;50.160;14.768;2022-08-01T08:06:03;99239.69;;;23.40;79.43
46876;BME280;32866;50.160;14.768;2022-08-01T08:08:28;99249.06;;;23.43;75.97
46876;BME280;32866;50.160;14.768;2022-08-01T08:10:54;99256.56;;;23.34;73.73
46876;BME280;32866;50.160;14.768;2022-08-01T08:13:19;99244.81;;;23.36;75.81
46876;BME280;32866;50.160;14.768;2022-08-01T08:15:45;99249.53;;;23.09;75.83
46876;BME280;32866;50.160;14.768;2022-08-01T08:18:10;99233.09;;;22.81;74.70
46876;BME280;32866;50.160;14.768;2022-08-01T08:20:35;99257.28;;;22.97;77.32
46876;BME280;32866;50.160;14.768;2022-08-01T08:23:01;99261.94;;;22.89;76.00
46876;BME280;32866;50.160;14.768;2022-08-01T08:25:26;99237.66;;;22.59;75.87
46876;BME280;32866;50.160;14.768;2022-08-01T08:27:53;99258.38;;;22.69;77.60
46876;BME280;32866;50.160;14.768;2022-08-01T08:30:19;99237.84;;;22.67;77.23
46876;BME280;32866;50.160;14.768;2022-08-01T08:32:44;99265.22;;;22.93;75.17
46876;BME280;32866;50.160;14.768;2022-08-01T08:35:10;99261.72;;;22.87;80.55
46876;BME280;32866;50.160;14.768;2022-08-01T08:37:36;99245.13;;;22.94;78.26
46876;BME280;32866;50.160;14.768;2022-08-01T08:40:04;99263.88;;;23.19;77.03
46876;BME280;32866;50.160;14.768;2022-08-01T08:42:29;99239.88;;;23.10;78.33
46876;BME280;32866;50.160;14.768;2022-08-01T08:44:55;99268.84;;;23.26;77.31
46876;BME280;32866;50.160;14.768;2022-08-01T08:47:22;99266.22;;;23.33;77.89
46876;BME280;32866;50.160;14.768;2022-08-01T08:49:51;99257.84;;;23.14;79.36
46876;BME280;32866;50.160;14.768;2022-08-01T08:52:20;99278.44;;;23.49;77.60
46876;BME280;32866;50.160;14.768;2022-08-01T08:54:47;99257.53;;;23.37;77.54
46876;BME280;32866;50.160;14.768;2022-08-01T08:57:14;99268.69;;;23.56;77.87
46876;BME280;32866;50.160;14.768;2022-08-01T08:59:40;99273.66;;;23.82;78.27
46876;BME280;32866;50.160;14.768;2022-08-01T09:02:07;99277.44;;;24.44;75.69
46876;BME280;32866;50.160;14.768;2022-08-01T09:04:35;99278.81;;;25.17;72.38
46876;BME280;32866;50.160;14.768;2022-08-01T09:07:03;99248.59;;;25.37;70.82
46876;BME280;32866;50.160;14.768;2022-08-01T09:09:28;99266.06;;;25.64;71.80
46876;BME280;32866;50.160;14.768;2022-08-01T09:11:54;99280.50;;;25.68;70.77
46876;BME280;32866;50.160;14.768;2022-08-01T09:14:20;99271.34;;;26.10;64.84
46876;BME280;32866;50.160;14.768;2022-08-01T09:17:06;99272.19;;;25.97;68.12
46876;BME280;32866;50.160;14.768;2022-08-01T09:19:46;99286.75;;;25.96;63.08
46876;BME280;32866;50.160;14.768;2022-08-01T09:22:15;99283.31;;;25.68;64.90
46876;BME280;32866;50.160;14.768;2022-08-01T09:24:57;99294.03;;;25.57;70.55
46876;BME280;32866;50.160;14.768;2022-08-01T09:27:22;99283.34;;;25.34;68.98
46876;BME280;32866;50.160;14.768;2022-08-01T09:29:51;99283.53;;;25.23;68.03
46876;BME280;32866;50.160;14.768;2022-08-01T09:32:17;99284.09;;;25.21;68.82
46876;BME280;32866;50.160;14.768;2022-08-01T09:34:43;99279.34;;;25.29;67.77
46876;BME280;32866;50.160;14.768;2022-08-01T09:37:08;99257.47;;;25.14;69.38
46876;BME280;32866;50.160;14.768;2022-08-01T09:39:37;99282.47;;;25.39;71.58
46876;BME280;32866;50.160;14.768;2022-08-01T09:42:24;99289.22;;;25.44;69.08
46876;BME280;32866;50.160;14.768;2022-08-01T09:44:50;99284.72;;;25.41;66.38
46876;BME280;32866;50.160;14.768;2022-08-01T09:47:16;99262.88;;;25.47;67.62
46876;BME280;32866;50.160;14.768;2022-08-01T09:49:44;99281.03;;;25.67;69.81
46876;BME280;32866;50.160;14.768;2022-08-01T09:52:22;99285.03;;;25.71;68.00
46876;BME280;32866;50.160;14.768;2022-08-01T09:54:59;99264.47;;;25.21;65.31
46876;BME280;32866;50.160;14.768;2022-08-01T09:57:25;99283.50;;;25.49;68.22
46876;BME280;32866;50.160;14.768;2022-08-01T09:59:53;99274.81;;;25.82;70.76
46876;BME280;32866;50.160;14.768;2022-08-01T10:02:33;99277.59;;;26.74;66.70
46876;BME280;32866;50.160;14.768;2022-08-01T10:05:01;99264.50;;;26.76;69.50
46876;BME280;32866;50.160;14.768;2022-08-01T10:07:26;99283.03;;;26.43;63.03
46876;BME280;32866;50.160;14.768;2022-08-01T10:09:52;99271.47;;;25.83;64.48
46876;BME280;32866;50.160;14.768;2022-08-01T10:12:19;99276.38;;;25.48;66.98
46876;BME280;32866;50.160;14.768;2022-08-01T10:14:46;99277.34;;;25.51;67.20
46876;BME280;32866;50.160;14.768;2022-08-01T10:17:14;99270.25;;;26.13;70.02
46876;BME280;32866;50.160;14.768;2022-08-01T10:19:41;99264.66;;;26.13;65.11
46876;BME280;32866;50.160;14.768;2022-08-01T10:22:11;99248.31;;;25.48;68.01
46876;BME280;32866;50.160;14.768;2022-08-01T10:24:43;99277.22;;;25.57;66.13
46876;BME280;32866;50.160;14.768;2022-08-01T10:27:09;99276.84;;;25.26;69.82
46876;BME280;32866;50.160;14.768;2022-08-01T10:29:56;99273.41;;;25.19;71.67
46876;BME280;32866;50.160;14.768;2022-08-01T10:32:25;99285.00;;;24.89;71.48
46876;BME280;32866;50.160;14.768;2022-08-01T10:34:52;99283.06;;;24.84;69.71
46876;BME280;32866;50.160;14.768;2022-08-01T10:37:17;99269.91;;;24.52;73.12
46876;BME280;32866;50.160;14.768;2022-08-01T10:39:43;99276.34;;;25.14;73.28
46876;BME280;32866;50.160;14.768;2022-08-01T10:42:10;99268.22;;;25.37;73.95
46876;BME280;32866;50.160;14.768;2022-08-01T10:44:37;99270.50;;;25.60;71.62
46876;BME280;32866;50.160;14.768;2022-08-01T10:47:07;99259.19;;;25.17;72.37
46876;BME280;32866;50.160;14.768;2022-08-01T10:49:37;99258.81;;;24.87;72.78
46876;BME280;32866;50.160;14.768;2022-08-01T10:52:05;99260.81;;;25.26;72.57
46876;BME280;32866;50.160;14.768;2022-08-01T10:54:38;99260.50;;;25.03;71.89
46876;BME280;32866;50.160;14.768;2022-08-01T10:57:03;99278.31;;;25.06;73.63
46876;BME280;32866;50.160;14.768;2022-08-01T10:59:30;99256.13;;;24.81;72.74
46876;BME280;32866;50.160;14.768;2022-08-01T11:04:54;99272.16;;;26.18;71.45
46876;BME280;32866;50.160;14.768;2022-08-01T11:07:34;99267.66;;;26.44;71.88
46876;BME280;32866;50.160;14.768;2022-08-01T11:10:09;99251.97;;;26.77;67.13
46876;BME280;32866;50.160;14.768;2022-08-01T11:12:39;99265.53;;;26.94;67.02
46876;BME280;32866;50.160;14.768;2022-08-01T11:17:45;99254.13;;;27.52;64.60
46876;BME280;32866;50.160;14.768;2022-08-01T11:20:19;99261.28;;;28.07;61.21
46876;BME280;32866;50.160;14.768;2022-08-01T11:30:45;99260.72;;;28.08;62.94
46876;BME280;32866;50.160;14.768;2022-08-01T11:33:12;99268.38;;;28.46;66.43
46876;BME280;32866;50.160;14.768;2022-08-01T11:38:39;99268.19;;;28.67;59.83
46876;BME280;32866;50.160;14.768;2022-08-01T11:47:00;99260.69;;;29.18;59.11
46876;BME280;32866;50.160;14.768;2022-08-01T11:55:24;99267.19;;;29.36;53.99
46876;BME280;32866;50.160;14.768;2022-08-01T11:57:42;99259.97;;;29.02;58.09
46876;BME280;32866;50.160;14.768;2022-08-01T12:00:11;99266.28;;;29.59;55.97
46876;BME280;32866;50.160;14.768;2022-08-01T12:02:37;99263.75;;;29.71;54.76
46876;BME280;32866;50.160;14.768;2022-08-01T12:05:07;99266.00;;;29.72;54.79
46876;BME280;32866;50.160;14.768;2022-08-01T12:07:34;99276.47;;;29.21;56.13
46876;BME280;32866;50.160;14.768;2022-08-01T12:12:34;99262.03;;;29.42;56.97
46876;BME280;32866;50.160;14.768;2022-08-01T12:15:09;99263.72;;;29.46;55.91
46876;BME280;32866;50.160;14.768;2022-08-01T12:17:37;99269.19;;;30.02;56.56
46876;BME280;32866;50.160;14.768;2022-08-01T12:20:04;99275.25;;;29.40;53.52
46876;BME280;32866;50.160;14.768;2022-08-01T12:22:30;99257.59;;;28.91;57.13
46876;BME280;32866;50.160;14.768;2022-08-01T12:25:11;99288.63;;;28.76;56.82
46876;BME280;32866;50.160;14.768;2022-08-01T12:27:38;99280.66;;;28.10;57.68
46876;BME280;32866;50.160;14.768;2022-08-01T12:30:09;99280.81;;;28.12;59.81
46876;BME280;32866;50.160;14.768;2022-08-01T12:32:36;99293.19;;;28.48;61.91
46876;BME280;32866;50.160;14.768;2022-08-01T12:35:04;99289.47;;;28.15;58.80
46876;BME280;32866;50.160;14.768;2022-08-01T12:37:30;99288.81;;;27.54;59.81
46876;BME280;32866;50.160;14.768;2022-08-01T12:39:56;99295.03;;;27.16;62.06
46876;BME280;32866;50.160;14.768;2022-08-01T12:42:22;99300.09;;;26.74;62.21
46876;BME280;32866;50.160;14.768;2022-08-01T12:44:50;99291.63;;;25.95;65.42
46876;BME280;32866;50.160;14.768;2022-08-01T12:47:17;99294.63;;;26.18;67.29
46876;BME280;32866;50.160;14.768;2022-08-01T12:49:44;99288.66;;;25.80;68.90
46876;BME280;32866;50.160;14.768;2022-08-01T12:52:11;99295.59;;;25.44;66.42
46876;BME280;32866;50.160;14.768;2022-08-01T12:57:31;99286.44;;;25.30;69.66
46876;BME280;32866;50.160;14.768;2022-08-01T13:02:35;99282.44;;;26.16;68.51
46876;BME280;32866;50.160;14.768;2022-08-01T13:05:02;99287.97;;;26.87;65.23
46876;BME280;32866;50.160;14.768;2022-08-01T13:07:52;99277.59;;;27.77;64.27
46876;BME280;32866;50.160;14.768;2022-08-01T13:10:29;99273.31;;;28.07;62.50
46876;BME280;32866;50.160;14.768;2022-08-01T13:12:57;99279.97;;;27.43;62.05
46876;BME280;32866;50.160;14.768;2022-08-01T13:15:31;99281.19;;;28.01;64.35
46876;BME280;32866;50.160;14.768;2022-08-01T13:17:58;99273.63;;;28.50;63.65
46876;BME280;32866;50.160;14.768;2022-08-01T13:20:33;99283.81;;;28.30;59.12
46876;BME280;32866;50.160;14.768;2022-08-01T13:23:09;99275.94;;;27.98;60.23
46876;BME280;32866;50.160;14.768;2022-08-01T13:25:53;99255.44;;;27.58;59.43
46876;BME280;32866;50.160;14.768;2022-08-01T13:28:24;99268.47;;;27.25;60.87
46876;BME280;32866;50.160;14.768;2022-08-01T13:30:53;99277.50;;;27.31;62.55